sensor_id;sensor_type;location;lat;lon;timestamp;P1;durP1;ratioP1;P2;durP2;ratioP2
46897;SDS011;32646;50.958;6.258;2024-03-07T00:01:25;37.53;;;14.27;;
46897;SDS011;32646;50.958;6.258;2024-03-07T00:03:52;43.50;;;15.23;;
46897;SDS011;32646;50.958;6.258;2024-03-07T00:06:18;37.22;;;15.73;;
46897;SDS011;32646;50.958;6.258;2024-03-07T00:08:45;43.97;;;16.73;;
46897;SDS011;32646;50.958;6.258;2024-03-07T00:11:12;43.40;;;18.83;;
46897;SDS011;32646;50.958;6.258;2024-03-07T00:13:38;46.70;;;17.88;;
46897;SDS011;32646;50.958;6.258;2024-03-07T00:16:05;50.80;;;16.70;;
46897;SDS011;32646;50.958;6.258;2024-03-07T00:18:32;41.47;;;15.68;;
46897;SDS011;32646;50.958;6.258;2024-03-07T00:20:58;47.70;;;16.90;;
46897;SDS011;32646;50.958;6.258;2024-03-07T00:23:25;50.45;;;18.88;;
46897;SDS011;32646;50.958;6.258;2024-03-07T00:25:52;42.30;;;17.10;;
46897;SDS011;32646;50.958;6.258;2024-03-07T00:28:18;49.70;;;17.25;;
46897;SDS011;32646;50.958;6.258;2024-03-07T00:30:45;42.30;;;17.00;;
46897;SDS011;32646;50.958;6.258;2024-03-07T00:33:12;40.88;;;16.05;;
46897;SDS011;32646;50.958;6.258;2024-03-07T00:35:38;44.10;;;16.75;;
46897;SDS011;32646;50.958;6.258;2024-03-07T00:38:05;35.70;;;15.00;;
46897;SDS011;32646;50.958;6.258;2024-03-07T00:40:32;38.38;;;16.38;;
46897;SDS011;32646;50.958;6.258;2024-03-07T00:42:58;42.35;;;13.93;;
46897;SDS011;32646;50.958;6.258;2024-03-07T00:45:25;37.55;;;15.93;;
46897;SDS011;32646;50.958;6.258;2024-03-07T00:47:52;38.90;;;14.90;;
46897;SDS011;32646;50.958;6.258;2024-03-07T00:50:18;37.55;;;15.07;;
46897;SDS011;32646;50.958;6.258;2024-03-07T00:52:45;43.25;;;16.40;;
46897;SDS011;32646;50.958;6.258;2024-03-07T00:55:12;37.83;;;14.18;;
46897;SDS011;32646;50.958;6.258;2024-03-07T00:57:38;48.60;;;16.58;;
46897;SDS011;32646;50.958;6.258;2024-03-07T01:00:05;43.80;;;14.57;;
46897;SDS011;32646;50.958;6.258;2024-03-07T01:02:32;47.75;;;17.17;;
46897;SDS011;32646;50.958;6.258;2024-03-07T01:04:59;45.60;;;15.38;;
46897;SDS011;32646;50.958;6.258;2024-03-07T01:07:25;44.38;;;16.65;;
46897;SDS011;32646;50.958;6.258;2024-03-07T01:09:52;46.33;;;17.23;;
46897;SDS011;32646;50.958;6.258;2024-03-07T01:12:18;47.13;;;18.23;;
46897;SDS011;32646;50.958;6.258;2024-03-07T01:14:45;46.67;;;17.55;;
46897;SDS011;32646;50.958;6.258;2024-03-07T01:17:12;50.17;;;16.02;;
46897;SDS011;32646;50.958;6.258;2024-03-07T01:19:38;40.95;;;14.18;;
46897;SDS011;32646;50.958;6.258;2024-03-07T01:22:05;41.33;;;16.55;;
46897;SDS011;32646;50.958;6.258;2024-03-07T01:24:32;47.65;;;15.30;;
46897;SDS011;32646;50.958;6.258;2024-03-07T01:26:58;40.25;;;16.83;;
46897;SDS011;32646;50.958;6.258;2024-03-07T01:29:25;48.70;;;17.90;;
46897;SDS011;32646;50.958;6.258;2024-03-07T01:31:52;46.80;;;17.45;;
46897;SDS011;32646;50.958;6.258;2024-03-07T01:34:18;46.97;;;16.55;;
46897;SDS011;32646;50.958;6.258;2024-03-07T01:36:45;47.10;;;16.88;;
46897;SDS011;32646;50.958;6.258;2024-03-07T01:39:11;50.83;;;18.63;;
46897;SDS011;32646;50.958;6.258;2024-03-07T01:41:38;47.15;;;17.45;;
46897;SDS011;32646;50.958;6.258;2024-03-07T01:44:05;52.88;;;18.13;;
46897;SDS011;32646;50.958;6.258;2024-03-07T01:46:31;53.90;;;17.90;;
46897;SDS011;32646;50.958;6.258;2024-03-07T01:48:58;47.28;;;16.63;;
46897;SDS011;32646;50.958;6.258;2024-03-07T01:51:25;48.97;;;18.05;;
46897;SDS011;32646;50.958;6.258;2024-03-07T01:53:52;51.70;;;18.30;;
46897;SDS011;32646;50.958;6.258;2024-03-07T01:56:19;51.45;;;19.50;;
46897;SDS011;32646;50.958;6.258;2024-03-07T01:58:47;54.05;;;18.17;;
46897;SDS011;32646;50.958;6.258;2024-03-07T02:01:13;51.75;;;18.77;;
46897;SDS011;32646;50.958;6.258;2024-03-07T02:03:40;55.40;;;18.42;;
46897;SDS011;32646;50.958;6.258;2024-03-07T02:06:07;47.55;;;17.48;;
46897;SDS011;32646;50.958;6.258;2024-03-07T02:08:34;53.35;;;16.75;;
46897;SDS011;32646;50.958;6.258;2024-03-07T02:11:00;49.20;;;17.85;;
46897;SDS011;32646;50.958;6.258;2024-03-07T02:13:27;48.47;;;17.67;;
46897;SDS011;32646;50.958;6.258;2024-03-07T02:15:53;58.90;;;20.20;;
46897;SDS011;32646;50.958;6.258;2024-03-07T02:18:21;54.33;;;18.00;;
46897;SDS011;32646;50.958;6.258;2024-03-07T02:20:48;46.05;;;18.02;;
46897;SDS011;32646;50.958;6.258;2024-03-07T02:23:15;46.97;;;17.70;;
46897;SDS011;32646;50.958;6.258;2024-03-07T02:25:41;46.08;;;16.83;;
46897;SDS011;32646;50.958;6.258;2024-03-07T02:28:08;47.30;;;16.63;;
46897;SDS011;32646;50.958;6.258;2024-03-07T02:30:35;43.22;;;15.20;;
46897;SDS011;32646;50.958;6.258;2024-03-07T02:33:01;48.42;;;17.25;;
46897;SDS011;32646;50.958;6.258;2024-03-07T02:35:28;45.30;;;15.80;;
46897;SDS011;32646;50.958;6.258;2024-03-07T02:37:55;46.03;;;15.98;;
46897;SDS011;32646;50.958;6.258;2024-03-07T02:40:21;51.42;;;17.50;;
46897;SDS011;32646;50.958;6.258;2024-03-07T02:42:48;48.75;;;16.92;;
46897;SDS011;32646;50.958;6.258;2024-03-07T02:45:15;48.47;;;19.52;;
46897;SDS011;32646;50.958;6.258;2024-03-07T02:47:42;45.83;;;16.58;;
46897;SDS011;32646;50.958;6.258;2024-03-07T02:50:09;53.38;;;18.52;;
46897;SDS011;32646;50.958;6.258;2024-03-07T02:52:36;51.97;;;18.15;;
46897;SDS011;32646;50.958;6.258;2024-03-07T02:55:03;49.08;;;18.83;;
46897;SDS011;32646;50.958;6.258;2024-03-07T02:57:31;49.10;;;17.05;;
46897;SDS011;32646;50.958;6.258;2024-03-07T02:59:58;54.78;;;18.10;;
46897;SDS011;32646;50.958;6.258;2024-03-07T03:02:24;49.92;;;18.05;;
46897;SDS011;32646;50.958;6.258;2024-03-07T03:04:51;51.40;;;19.90;;
46897;SDS011;32646;50.958;6.258;2024-03-07T03:07:17;50.95;;;17.35;;
46897;SDS011;32646;50.958;6.258;2024-03-07T03:09:44;50.00;;;17.38;;
46897;SDS011;32646;50.958;6.258;2024-03-07T03:12:11;54.92;;;19.20;;
46897;SDS011;32646;50.958;6.258;2024-03-07T03:14:38;50.55;;;18.27;;
46897;SDS011;32646;50.958;6.258;2024-03-07T03:17:05;53.22;;;19.45;;
46897;SDS011;32646;50.958;6.258;2024-03-07T03:19:31;58.88;;;20.83;;
46897;SDS011;32646;50.958;6.258;2024-03-07T03:21:58;50.90;;;18.83;;
46897;SDS011;32646;50.958;6.258;2024-03-07T03:24:25;54.97;;;18.58;;
46897;SDS011;32646;50.958;6.258;2024-03-07T03:26:51;53.85;;;19.33;;
46897;SDS011;32646;50.958;6.258;2024-03-07T03:29:18;54.42;;;18.15;;
46897;SDS011;32646;50.958;6.258;2024-03-07T03:31:45;46.58;;;17.02;;
46897;SDS011;32646;50.958;6.258;2024-03-07T03:34:11;45.78;;;16.20;;
46897;SDS011;32646;50.958;6.258;2024-03-07T03:36:38;55.55;;;17.80;;
46897;SDS011;32646;50.958;6.258;2024-03-07T03:39:04;52.10;;;18.58;;
46897;SDS011;32646;50.958;6.258;2024-03-07T03:41:31;53.65;;;17.23;;
46897;SDS011;32646;50.958;6.258;2024-03-07T03:43:58;56.13;;;18.83;;
46897;SDS011;32646;50.958;6.258;2024-03-07T03:46:24;49.03;;;18.30;;
46897;SDS011;32646;50.958;6.258;2024-03-07T03:48:51;51.65;;;17.73;;
46897;SDS011;32646;50.958;6.258;2024-03-07T03:51:17;47.15;;;17.23;;
46897;SDS011;32646;50.958;6.258;2024-03-07T03:53:44;52.00;;;17.08;;
46897;SDS011;32646;50.958;6.258;2024-03-07T03:56:11;45.40;;;16.27;;
46897;SDS011;32646;50.958;6.258;2024-03-07T03:58:39;47.20;;;16.95;;
46897;SDS011;32646;50.958;6.258;2024-03-07T04:01:06;43.90;;;16.23;;
46897;SDS011;32646;50.958;6.258;2024-03-07T04:03:32;37.15;;;14.90;;
46897;SDS011;32646;50.958;6.258;2024-03-07T04:05:59;43.05;;;16.38;;
46897;SDS011;32646;50.958;6.258;2024-03-07T04:08:26;39.08;;;15.10;;
46897;SDS011;32646;50.958;6.258;2024-03-07T04:10:52;45.83;;;15.73;;
46897;SDS011;32646;50.958;6.258;2024-03-07T04:13:19;44.05;;;14.32;;
46897;SDS011;32646;50.958;6.258;2024-03-07T04:15:45;40.45;;;14.13;;
46897;SDS011;32646;50.958;6.258;2024-03-07T04:18:12;44.28;;;14.57;;
46897;SDS011;32646;50.958;6.258;2024-03-07T04:20:39;42.88;;;15.13;;
46897;SDS011;32646;50.958;6.258;2024-03-07T04:23:06;38.15;;;14.52;;
46897;SDS011;32646;50.958;6.258;2024-03-07T04:25:37;37.03;;;14.52;;
46897;SDS011;32646;50.958;6.258;2024-03-07T04:28:04;37.80;;;14.23;;
46897;SDS011;32646;50.958;6.258;2024-03-07T04:30:30;38.28;;;13.90;;
46897;SDS011;32646;50.958;6.258;2024-03-07T04:32:57;40.20;;;14.32;;
46897;SDS011;32646;50.958;6.258;2024-03-07T04:35:24;34.88;;;13.43;;
46897;SDS011;32646;50.958;6.258;2024-03-07T04:37:50;37.67;;;14.02;;
46897;SDS011;32646;50.958;6.258;2024-03-07T04:40:17;45.47;;;15.05;;
46897;SDS011;32646;50.958;6.258;2024-03-07T04:42:48;40.80;;;14.43;;
46897;SDS011;32646;50.958;6.258;2024-03-07T04:45:16;41.67;;;15.77;;
46897;SDS011;32646;50.958;6.258;2024-03-07T04:47:43;43.72;;;15.32;;
46897;SDS011;32646;50.958;6.258;2024-03-07T04:50:10;33.75;;;13.60;;
46897;SDS011;32646;50.958;6.258;2024-03-07T04:52:38;34.78;;;15.05;;
46897;SDS011;32646;50.958;6.258;2024-03-07T04:55:06;43.35;;;16.52;;
46897;SDS011;32646;50.958;6.258;2024-03-07T04:57:33;39.13;;;13.75;;
46897;SDS011;32646;50.958;6.258;2024-03-07T05:00:00;44.22;;;14.63;;
46897;SDS011;32646;50.958;6.258;2024-03-07T05:02:27;47.33;;;15.38;;
46897;SDS011;32646;50.958;6.258;2024-03-07T05:04:54;38.10;;;14.57;;
46897;SDS011;32646;50.958;6.258;2024-03-07T05:07:20;42.70;;;14.20;;
46897;SDS011;32646;50.958;6.258;2024-03-07T05:09:47;43.65;;;15.15;;
46897;SDS011;32646;50.958;6.258;2024-03-07T05:12:13;49.63;;;15.95;;
46897;SDS011;32646;50.958;6.258;2024-03-07T05:14:40;51.17;;;16.48;;
46897;SDS011;32646;50.958;6.258;2024-03-07T05:17:07;43.80;;;14.45;;
46897;SDS011;32646;50.958;6.258;2024-03-07T05:19:34;45.22;;;15.75;;
46897;SDS011;32646;50.958;6.258;2024-03-07T05:22:01;42.13;;;15.60;;
46897;SDS011;32646;50.958;6.258;2024-03-07T05:24:28;52.15;;;16.15;;
46897;SDS011;32646;50.958;6.258;2024-03-07T05:26:54;53.20;;;16.63;;
46897;SDS011;32646;50.958;6.258;2024-03-07T05:29:21;51.35;;;15.50;;
46897;SDS011;32646;50.958;6.258;2024-03-07T05:31:48;49.15;;;17.95;;
46897;SDS011;32646;50.958;6.258;2024-03-07T05:34:18;46.67;;;15.70;;
46897;SDS011;32646;50.958;6.258;2024-03-07T05:36:45;45.65;;;16.20;;
46897;SDS011;32646;50.958;6.258;2024-03-07T05:39:13;52.58;;;18.63;;
46897;SDS011;32646;50.958;6.258;2024-03-07T05:41:40;51.92;;;17.33;;
46897;SDS011;32646;50.958;6.258;2024-03-07T05:44:08;45.33;;;15.50;;
46897;SDS011;32646;50.958;6.258;2024-03-07T05:46:35;44.72;;;17.17;;
46897;SDS011;32646;50.958;6.258;2024-03-07T05:49:06;42.00;;;15.65;;
46897;SDS011;32646;50.958;6.258;2024-03-07T05:51:32;49.80;;;15.02;;
46897;SDS011;32646;50.958;6.258;2024-03-07T05:53:59;46.10;;;17.20;;
46897;SDS011;32646;50.958;6.258;2024-03-07T05:56:26;44.15;;;17.63;;
46897;SDS011;32646;50.958;6.258;2024-03-07T05:58:52;47.28;;;17.27;;
46897;SDS011;32646;50.958;6.258;2024-03-07T06:01:19;48.28;;;15.88;;
46897;SDS011;32646;50.958;6.258;2024-03-07T06:03:45;45.40;;;17.08;;
46897;SDS011;32646;50.958;6.258;2024-03-07T06:06:12;47.72;;;16.25;;
46897;SDS011;32646;50.958;6.258;2024-03-07T06:08:39;46.70;;;15.70;;
46897;SDS011;32646;50.958;6.258;2024-03-07T06:11:05;47.60;;;15.43;;
46897;SDS011;32646;50.958;6.258;2024-03-07T06:13:32;44.88;;;17.35;;
46897;SDS011;32646;50.958;6.258;2024-03-07T06:15:58;53.55;;;17.23;;
46897;SDS011;32646;50.958;6.258;2024-03-07T06:18:25;53.38;;;17.98;;
46897;SDS011;32646;50.958;6.258;2024-03-07T06:20:52;50.28;;;17.30;;
46897;SDS011;32646;50.958;6.258;2024-03-07T06:23:18;48.05;;;16.40;;
46897;SDS011;32646;50.958;6.258;2024-03-07T06:25:45;50.60;;;18.13;;
46897;SDS011;32646;50.958;6.258;2024-03-07T06:28:12;47.25;;;15.48;;
46897;SDS011;32646;50.958;6.258;2024-03-07T06:30:40;43.97;;;16.35;;
46897;SDS011;32646;50.958;6.258;2024-03-07T06:33:09;38.83;;;14.68;;
46897;SDS011;32646;50.958;6.258;2024-03-07T06:35:35;40.50;;;15.77;;
46897;SDS011;32646;50.958;6.258;2024-03-07T06:38:03;39.92;;;15.07;;
46897;SDS011;32646;50.958;6.258;2024-03-07T06:40:30;51.30;;;17.05;;
46897;SDS011;32646;50.958;6.258;2024-03-07T06:43:00;45.28;;;15.00;;
46897;SDS011;32646;50.958;6.258;2024-03-07T06:45:27;44.67;;;16.10;;
46897;SDS011;32646;50.958;6.258;2024-03-07T06:47:54;41.15;;;15.65;;
46897;SDS011;32646;50.958;6.258;2024-03-07T06:50:21;42.10;;;14.68;;
46897;SDS011;32646;50.958;6.258;2024-03-07T06:53:02;44.65;;;15.82;;
46897;SDS011;32646;50.958;6.258;2024-03-07T06:55:30;44.80;;;16.70;;
46897;SDS011;32646;50.958;6.258;2024-03-07T06:57:56;45.83;;;17.85;;
46897;SDS011;32646;50.958;6.258;2024-03-07T07:00:23;42.50;;;15.93;;
46897;SDS011;32646;50.958;6.258;2024-03-07T07:02:49;43.50;;;17.48;;
46897;SDS011;32646;50.958;6.258;2024-03-07T07:05:16;46.80;;;15.60;;
46897;SDS011;32646;50.958;6.258;2024-03-07T07:07:46;53.58;;;16.60;;
46897;SDS011;32646;50.958;6.258;2024-03-07T07:10:13;46.20;;;17.35;;
46897;SDS011;32646;50.958;6.258;2024-03-07T07:12:40;41.40;;;16.30;;
46897;SDS011;32646;50.958;6.258;2024-03-07T07:15:07;46.38;;;17.60;;
46897;SDS011;32646;50.958;6.258;2024-03-07T07:17:34;40.30;;;14.60;;
46897;SDS011;32646;50.958;6.258;2024-03-07T07:20:00;48.05;;;15.50;;
46897;SDS011;32646;50.958;6.258;2024-03-07T07:22:27;42.45;;;16.48;;
46897;SDS011;32646;50.958;6.258;2024-03-07T07:24:53;47.20;;;16.85;;
46897;SDS011;32646;50.958;6.258;2024-03-07T07:27:20;43.63;;;17.20;;
46897;SDS011;32646;50.958;6.258;2024-03-07T07:29:47;46.92;;;17.40;;
46897;SDS011;32646;50.958;6.258;2024-03-07T07:32:13;47.88;;;16.13;;
46897;SDS011;32646;50.958;6.258;2024-03-07T07:34:40;48.75;;;17.50;;
46897;SDS011;32646;50.958;6.258;2024-03-07T07:37:07;52.33;;;18.10;;
46897;SDS011;32646;50.958;6.258;2024-03-07T07:39:33;42.60;;;15.95;;
46897;SDS011;32646;50.958;6.258;2024-03-07T07:42:00;44.33;;;18.55;;
46897;SDS011;32646;50.958;6.258;2024-03-07T07:44:26;44.13;;;16.27;;
46897;SDS011;32646;50.958;6.258;2024-03-07T07:46:53;41.50;;;14.93;;
46897;SDS011;32646;50.958;6.258;2024-03-07T07:49:20;36.22;;;15.27;;
46897;SDS011;32646;50.958;6.258;2024-03-07T07:51:46;32.83;;;13.48;;
46897;SDS011;32646;50.958;6.258;2024-03-07T07:54:14;31.08;;;12.88;;
46897;SDS011;32646;50.958;6.258;2024-03-07T07:56:41;34.40;;;13.73;;
46897;SDS011;32646;50.958;6.258;2024-03-07T07:59:08;32.53;;;13.02;;
46897;SDS011;32646;50.958;6.258;2024-03-07T08:01:34;27.70;;;12.88;;
46897;SDS011;32646;50.958;6.258;2024-03-07T08:04:01;27.67;;;12.20;;
46897;SDS011;32646;50.958;6.258;2024-03-07T08:06:28;26.00;;;12.25;;
46897;SDS011;32646;50.958;6.258;2024-03-07T08:08:54;25.15;;;12.20;;
46897;SDS011;32646;50.958;6.258;2024-03-07T08:11:21;28.08;;;12.88;;
46897;SDS011;32646;50.958;6.258;2024-03-07T08:13:48;23.48;;;12.93;;
46897;SDS011;32646;50.958;6.258;2024-03-07T08:16:15;25.33;;;11.40;;
46897;SDS011;32646;50.958;6.258;2024-03-07T08:18:42;29.27;;;12.60;;
46897;SDS011;32646;50.958;6.258;2024-03-07T08:21:09;27.13;;;12.60;;
46897;SDS011;32646;50.958;6.258;2024-03-07T08:23:36;26.77;;;12.43;;
46897;SDS011;32646;50.958;6.258;2024-03-07T08:26:03;27.88;;;12.77;;
46897;SDS011;32646;50.958;6.258;2024-03-07T08:28:31;28.02;;;12.57;;
46897;SDS011;32646;50.958;6.258;2024-03-07T08:30:58;25.05;;;12.13;;
46897;SDS011;32646;50.958;6.258;2024-03-07T08:33:25;23.92;;;12.95;;
46897;SDS011;32646;50.958;6.258;2024-03-07T08:35:52;24.80;;;12.80;;
46897;SDS011;32646;50.958;6.258;2024-03-07T08:38:18;29.55;;;13.38;;
46897;SDS011;32646;50.958;6.258;2024-03-07T08:40:45;24.95;;;13.35;;
46897;SDS011;32646;50.958;6.258;2024-03-07T08:43:12;27.65;;;13.32;;
46897;SDS011;32646;50.958;6.258;2024-03-07T08:45:38;30.27;;;12.57;;
46897;SDS011;32646;50.958;6.258;2024-03-07T08:48:05;29.50;;;12.27;;
46897;SDS011;32646;50.958;6.258;2024-03-07T08:50:34;28.52;;;12.70;;
46897;SDS011;32646;50.958;6.258;2024-03-07T08:53:02;23.65;;;11.85;;
46897;SDS011;32646;50.958;6.258;2024-03-07T08:55:29;29.10;;;13.20;;
46897;SDS011;32646;50.958;6.258;2024-03-07T08:57:56;28.75;;;13.50;;
46897;SDS011;32646;50.958;6.258;2024-03-07T09:00:22;27.92;;;12.55;;
46897;SDS011;32646;50.958;6.258;2024-03-07T09:02:53;26.48;;;13.45;;
46897;SDS011;32646;50.958;6.258;2024-03-07T09:05:22;29.90;;;13.45;;
46897;SDS011;32646;50.958;6.258;2024-03-07T09:07:53;27.38;;;11.48;;
46897;SDS011;32646;50.958;6.258;2024-03-07T09:10:20;34.45;;;13.63;;
46897;SDS011;32646;50.958;6.258;2024-03-07T09:12:49;25.77;;;12.27;;
46897;SDS011;32646;50.958;6.258;2024-03-07T09:15:17;28.92;;;13.27;;
46897;SDS011;32646;50.958;6.258;2024-03-07T09:17:44;26.45;;;12.30;;
46897;SDS011;32646;50.958;6.258;2024-03-07T09:20:11;28.50;;;12.70;;
46897;SDS011;32646;50.958;6.258;2024-03-07T09:22:37;29.65;;;13.25;;
46897;SDS011;32646;50.958;6.258;2024-03-07T09:25:04;26.27;;;11.77;;
46897;SDS011;32646;50.958;6.258;2024-03-07T09:27:31;23.92;;;11.02;;
46897;SDS011;32646;50.958;6.258;2024-03-07T09:29:58;23.90;;;11.80;;
46897;SDS011;32646;50.958;6.258;2024-03-07T09:32:24;22.38;;;10.57;;
46897;SDS011;32646;50.958;6.258;2024-03-07T09:34:51;22.60;;;10.90;;
46897;SDS011;32646;50.958;6.258;2024-03-07T09:37:18;25.30;;;10.57;;
46897;SDS011;32646;50.958;6.258;2024-03-07T09:39:44;22.50;;;11.43;;
46897;SDS011;32646;50.958;6.258;2024-03-07T09:42:11;21.40;;;10.23;;
46897;SDS011;32646;50.958;6.258;2024-03-07T09:44:42;20.83;;;10.85;;
46897;SDS011;32646;50.958;6.258;2024-03-07T09:47:11;17.60;;;10.00;;
46897;SDS011;32646;50.958;6.258;2024-03-07T09:49:39;23.65;;;10.52;;
46897;SDS011;32646;50.958;6.258;2024-03-07T09:52:06;17.00;;;10.02;;
46897;SDS011;32646;50.958;6.258;2024-03-07T09:54:35;19.40;;;10.15;;
46897;SDS011;32646;50.958;6.258;2024-03-07T09:57:01;22.17;;;10.57;;
46897;SDS011;32646;50.958;6.258;2024-03-07T09:59:30;20.52;;;11.60;;
46897;SDS011;32646;50.958;6.258;2024-03-07T10:01:59;23.17;;;10.75;;
46897;SDS011;32646;50.958;6.258;2024-03-07T10:04:38;20.02;;;9.85;;
46897;SDS011;32646;50.958;6.258;2024-03-07T10:07:09;20.85;;;11.52;;
46897;SDS011;32646;50.958;6.258;2024-03-07T10:09:37;19.70;;;10.82;;
46897;SDS011;32646;50.958;6.258;2024-03-07T10:12:04;19.90;;;10.55;;
46897;SDS011;32646;50.958;6.258;2024-03-07T10:14:32;17.50;;;10.20;;
46897;SDS011;32646;50.958;6.258;2024-03-07T10:16:59;19.30;;;9.85;;
46897;SDS011;32646;50.958;6.258;2024-03-07T10:19:25;20.85;;;10.10;;
46897;SDS011;32646;50.958;6.258;2024-03-07T10:21:54;23.27;;;11.02;;
46897;SDS011;32646;50.958;6.258;2024-03-07T10:24:23;20.58;;;9.52;;
46897;SDS011;32646;50.958;6.258;2024-03-07T10:26:50;20.15;;;10.02;;
46897;SDS011;32646;50.958;6.258;2024-03-07T10:29:17;18.48;;;9.75;;
46897;SDS011;32646;50.958;6.258;2024-03-07T10:31:46;19.55;;;10.05;;
46897;SDS011;32646;50.958;6.258;2024-03-07T10:34:31;20.20;;;10.57;;
46897;SDS011;32646;50.958;6.258;2024-03-07T10:37:01;19.00;;;9.90;;
46897;SDS011;32646;50.958;6.258;2024-03-07T10:39:27;20.38;;;9.43;;
46897;SDS011;32646;50.958;6.258;2024-03-07T10:41:54;19.50;;;10.00;;
46897;SDS011;32646;50.958;6.258;2024-03-07T10:44:24;21.00;;;9.45;;
46897;SDS011;32646;50.958;6.258;2024-03-07T10:46:55;20.33;;;10.18;;
46897;SDS011;32646;50.958;6.258;2024-03-07T10:49:22;21.38;;;10.30;;
46897;SDS011;32646;50.958;6.258;2024-03-07T10:51:58;21.17;;;9.35;;
46897;SDS011;32646;50.958;6.258;2024-03-07T10:54:53;19.65;;;9.18;;
46897;SDS011;32646;50.958;6.258;2024-03-07T10:57:50;18.92;;;9.18;;
46897;SDS011;32646;50.958;6.258;2024-03-07T11:00:17;19.83;;;8.85;;
46897;SDS011;32646;50.958;6.258;2024-03-07T11:02:48;20.73;;;10.07;;
46897;SDS011;32646;50.958;6.258;2024-03-07T11:05:16;19.05;;;8.60;;
46897;SDS011;32646;50.958;6.258;2024-03-07T11:07:43;19.92;;;9.43;;
46897;SDS011;32646;50.958;6.258;2024-03-07T11:10:10;19.95;;;9.23;;
46897;SDS011;32646;50.958;6.258;2024-03-07T11:12:40;20.05;;;8.90;;
46897;SDS011;32646;50.958;6.258;2024-03-07T11:15:08;20.05;;;8.85;;
46897;SDS011;32646;50.958;6.258;2024-03-07T11:17:37;18.88;;;9.15;;
46897;SDS011;32646;50.958;6.258;2024-03-07T11:20:22;20.70;;;9.68;;
46897;SDS011;32646;50.958;6.258;2024-03-07T11:22:50;18.58;;;8.77;;
46897;SDS011;32646;50.958;6.258;2024-03-07T11:25:18;18.35;;;8.00;;
46897;SDS011;32646;50.958;6.258;2024-03-07T11:27:51;20.33;;;9.32;;
46897;SDS011;32646;50.958;6.258;2024-03-07T11:30:25;20.05;;;9.02;;
46897;SDS011;32646;50.958;6.258;2024-03-07T11:32:53;25.20;;;9.70;;
46897;SDS011;32646;50.958;6.258;2024-03-07T11:35:21;17.73;;;9.25;;
46897;SDS011;32646;50.958;6.258;2024-03-07T11:38:00;17.00;;;8.70;;
46897;SDS011;32646;50.958;6.258;2024-03-07T11:42:56;16.48;;;8.25;;
46897;SDS011;32646;50.958;6.258;2024-03-07T11:45:23;18.73;;;8.68;;
46897;SDS011;32646;50.958;6.258;2024-03-07T11:47:50;19.30;;;9.52;;
46897;SDS011;32646;50.958;6.258;2024-03-07T11:50:18;18.52;;;8.50;;
46897;SDS011;32646;50.958;6.258;2024-03-07T11:52:44;19.30;;;7.70;;
46897;SDS011;32646;50.958;6.258;2024-03-07T11:55:12;19.23;;;8.73;;
46897;SDS011;32646;50.958;6.258;2024-03-07T11:57:38;17.02;;;8.25;;
46897;SDS011;32646;50.958;6.258;2024-03-07T12:00:05;19.77;;;9.10;;
46897;SDS011;32646;50.958;6.258;2024-03-07T12:02:32;16.63;;;8.00;;
46897;SDS011;32646;50.958;6.258;2024-03-07T12:04:59;17.60;;;8.70;;
46897;SDS011;32646;50.958;6.258;2024-03-07T12:07:26;18.15;;;8.43;;
46897;SDS011;32646;50.958;6.258;2024-03-07T12:09:53;17.70;;;8.23;;
46897;SDS011;32646;50.958;6.258;2024-03-07T12:12:20;18.50;;;9.05;;
46897;SDS011;32646;50.958;6.258;2024-03-07T12:14:47;19.52;;;8.85;;
46897;SDS011;32646;50.958;6.258;2024-03-07T12:17:14;18.13;;;8.23;;
46897;SDS011;32646;50.958;6.258;2024-03-07T12:19:41;21.35;;;9.13;;
46897;SDS011;32646;50.958;6.258;2024-03-07T12:22:09;19.08;;;8.60;;
46897;SDS011;32646;50.958;6.258;2024-03-07T12:24:38;21.83;;;9.27;;
46897;SDS011;32646;50.958;6.258;2024-03-07T12:27:09;18.75;;;8.65;;
46897;SDS011;32646;50.958;6.258;2024-03-07T12:29:36;19.63;;;9.00;;
46897;SDS011;32646;50.958;6.258;2024-03-07T12:32:06;15.63;;;7.75;;
46897;SDS011;32646;50.958;6.258;2024-03-07T12:34:34;18.60;;;8.88;;
46897;SDS011;32646;50.958;6.258;2024-03-07T12:37:01;20.20;;;8.75;;
46897;SDS011;32646;50.958;6.258;2024-03-07T12:39:28;18.58;;;8.68;;
46897;SDS011;32646;50.958;6.258;2024-03-07T12:41:58;18.88;;;8.32;;
46897;SDS011;32646;50.958;6.258;2024-03-07T12:44:25;18.48;;;8.05;;
46897;SDS011;32646;50.958;6.258;2024-03-07T12:46:52;17.83;;;8.40;;
46897;SDS011;32646;50.958;6.258;2024-03-07T12:49:19;16.17;;;8.55;;
46897;SDS011;32646;50.958;6.258;2024-03-07T12:51:45;18.48;;;8.43;;
46897;SDS011;32646;50.958;6.258;2024-03-07T12:54:12;18.65;;;8.77;;
46897;SDS011;32646;50.958;6.258;2024-03-07T12:56:38;15.30;;;7.80;;
46897;SDS011;32646;50.958;6.258;2024-03-07T12:59:05;16.85;;;8.32;;
46897;SDS011;32646;50.958;6.258;2024-03-07T13:01:32;16.98;;;8.07;;
46897;SDS011;32646;50.958;6.258;2024-03-07T13:03:59;16.60;;;8.27;;
46897;SDS011;32646;50.958;6.258;2024-03-07T13:06:25;19.42;;;9.07;;
46897;SDS011;32646;50.958;6.258;2024-03-07T13:08:52;14.57;;;7.00;;
46897;SDS011;32646;50.958;6.258;2024-03-07T13:11:19;15.02;;;7.72;;
46897;SDS011;32646;50.958;6.258;2024-03-07T13:13:46;15.50;;;7.65;;
46897;SDS011;32646;50.958;6.258;2024-03-07T13:16:12;18.27;;;8.43;;
46897;SDS011;32646;50.958;6.258;2024-03-07T13:18:39;18.48;;;8.85;;
46897;SDS011;32646;50.958;6.258;2024-03-07T13:21:06;16.58;;;7.85;;
46897;SDS011;32646;50.958;6.258;2024-03-07T13:23:33;16.58;;;7.90;;
46897;SDS011;32646;50.958;6.258;2024-03-07T13:26:01;17.40;;;9.50;;
46897;SDS011;32646;50.958;6.258;2024-03-07T13:28:29;17.63;;;8.20;;
46897;SDS011;32646;50.958;6.258;2024-03-07T13:30:55;14.85;;;7.63;;
46897;SDS011;32646;50.958;6.258;2024-03-07T13:33:22;16.00;;;8.80;;
46897;SDS011;32646;50.958;6.258;2024-03-07T13:35:49;18.27;;;8.15;;
46897;SDS011;32646;50.958;6.258;2024-03-07T13:38:15;15.90;;;8.48;;
46897;SDS011;32646;50.958;6.258;2024-03-07T13:40:42;19.58;;;8.15;;
46897;SDS011;32646;50.958;6.258;2024-03-07T13:43:09;19.45;;;9.48;;
46897;SDS011;32646;50.958;6.258;2024-03-07T13:45:36;14.43;;;7.65;;
46897;SDS011;32646;50.958;6.258;2024-03-07T13:48:03;18.65;;;8.70;;
46897;SDS011;32646;50.958;6.258;2024-03-07T13:50:30;17.88;;;7.88;;
46897;SDS011;32646;50.958;6.258;2024-03-07T13:53:17;17.95;;;7.93;;
46897;SDS011;32646;50.958;6.258;2024-03-07T14:00:55;17.17;;;7.85;;
46897;SDS011;32646;50.958;6.258;2024-03-07T14:03:59;19.48;;;8.60;;
46897;SDS011;32646;50.958;6.258;2024-03-07T14:06:56;17.88;;;7.47;;
46897;SDS011;32646;50.958;6.258;2024-03-07T14:12:54;16.00;;;7.63;;
46897;SDS011;32646;50.958;6.258;2024-03-07T14:15:56;18.50;;;7.00;;
46897;SDS011;32646;50.958;6.258;2024-03-07T14:24:33;14.45;;;6.45;;
46897;SDS011;32646;50.958;6.258;2024-03-07T14:27:35;14.25;;;6.70;;
46897;SDS011;32646;50.958;6.258;2024-03-07T14:40:54;14.63;;;7.03;;
46897;SDS011;32646;50.958;6.258;2024-03-07T14:43:22;13.40;;;7.13;;
46897;SDS011;32646;50.958;6.258;2024-03-07T14:45:49;14.02;;;6.82;;
46897;SDS011;32646;50.958;6.258;2024-03-07T14:48:17;15.30;;;7.55;;
46897;SDS011;32646;50.958;6.258;2024-03-07T14:50:44;14.32;;;6.22;;
46897;SDS011;32646;50.958;6.258;2024-03-07T14:53:12;15.52;;;6.95;;
46897;SDS011;32646;50.958;6.258;2024-03-07T14:55:40;12.27;;;6.38;;
46897;SDS011;32646;50.958;6.258;2024-03-07T14:58:07;13.75;;;6.50;;